createdAt,value
2023-05-31T00:02:08.551Z,17.46
2023-05-31T00:04:37.176Z,17.56
2023-05-31T00:07:05.453Z,17.60
2023-05-31T00:09:32.453Z,17.18
2023-05-31T00:12:00.155Z,17.16
2023-05-31T00:14:28.532Z,17.20
2023-05-31T00:17:23.890Z,17.32
2023-05-31T00:19:44.641Z,17.41
2023-05-31T00:22:11.702Z,17.41
2023-05-31T00:24:47.723Z,17.38
2023-05-31T00:27:14.934Z,17.35
2023-05-31T00:29:41.979Z,17.18
2023-05-31T00:32:09.750Z,17.16
2023-05-31T00:34:36.903Z,17.19
2023-05-31T00:37:06.258Z,17.21
2023-05-31T00:39:34.322Z,17.24
2023-05-31T00:42:01.269Z,17.29
2023-05-31T00:44:28.335Z,17.56
2023-05-31T00:46:56.111Z,17.83
2023-05-31T00:49:23.125Z,17.40
2023-05-31T00:51:50.422Z,17.10
2023-05-31T00:54:19.385Z,16.70
2023-05-31T00:56:46.945Z,16.37
2023-05-31T00:59:16.206Z,16.39
2023-05-31T01:01:43.642Z,16.37
2023-05-31T01:04:16.549Z,16.77
2023-05-31T01:06:43.722Z,16.91
2023-05-31T01:09:11.223Z,16.93
2023-05-31T01:11:59.373Z,17.14
2023-05-31T01:14:40.510Z,17.15
2023-05-31T01:17:22.833Z,17.21
2023-05-31T01:19:55.364Z,17.42
2023-05-31T01:22:50.468Z,17.18
2023-05-31T01:25:47.015Z,16.56
2023-05-31T01:28:17.943Z,16.08
2023-05-31T01:30:48.078Z,15.92
2023-05-31T01:33:19.792Z,15.66
2023-05-31T01:35:46.923Z,15.89
2023-05-31T01:38:13.990Z,16.11
2023-05-31T01:40:41.542Z,15.99
2023-05-31T01:43:12.104Z,15.99
2023-05-31T01:45:41.791Z,16.11
2023-05-31T01:48:12.010Z,16.45
2023-05-31T01:50:42.890Z,16.61
2023-05-31T01:53:10.223Z,16.91
2023-05-31T01:55:37.768Z,16.95
2023-05-31T01:58:07.401Z,17.05
2023-05-31T02:00:42.294Z,17.08
2023-05-31T02:03:14.510Z,17.22
2023-05-31T02:05:56.345Z,17.15
2023-05-31T02:08:24.858Z,17.23
2023-05-31T02:10:51.960Z,17.23
2023-05-31T02:13:21.100Z,17.24
2023-05-31T02:15:49.468Z,17.08
2023-05-31T02:18:18.599Z,17.12
2023-05-31T02:20:46.565Z,17.11
2023-05-31T02:23:19.204Z,17.14
2023-05-31T02:25:46.606Z,17.27
2023-05-31T02:28:14.065Z,17.33
2023-05-31T02:30:41.531Z,17.29
2023-05-31T02:33:10.714Z,16.66
2023-05-31T02:35:38.978Z,16.56
2023-05-31T02:38:06.168Z,16.63
2023-05-31T02:40:33.997Z,16.44
2023-05-31T02:43:01.098Z,16.32
2023-05-31T02:45:28.342Z,16.38
2023-05-31T02:47:55.732Z,16.60
2023-05-31T02:50:43.384Z,16.36
2023-05-31T02:53:23.986Z,16.31
2023-05-31T02:55:55.495Z,16.23
2023-05-31T02:58:25.545Z,16.09
2023-05-31T03:01:11.039Z,15.96
2023-05-31T03:03:46.630Z,16.03
2023-05-31T03:06:24.308Z,16.04
2023-05-31T03:13:41.557Z,15.86
2023-05-31T03:16:09.217Z,15.72
2023-05-31T03:18:38.158Z,15.86
2023-05-31T03:21:06.464Z,16.05
2023-05-31T03:23:34.921Z,15.76
2023-05-31T03:26:02.640Z,15.71
2023-05-31T03:28:30.017Z,15.66
2023-05-31T03:30:56.921Z,15.14
2023-05-31T03:33:24.099Z,15.35
2023-05-31T03:35:53.755Z,15.31
2023-05-31T03:38:21.657Z,15.53
2023-05-31T03:40:50.199Z,15.84
2023-05-31T03:43:17.417Z,15.99
2023-05-31T03:45:45.462Z,16.22
2023-05-31T03:48:12.868Z,16.18
2023-05-31T03:50:40.618Z,16.17
2023-05-31T03:53:07.712Z,16.20
2023-05-31T03:55:35.008Z,16.35
2023-05-31T03:58:04.319Z,16.45
2023-05-31T04:00:31.662Z,16.68
2023-05-31T04:03:04.798Z,16.86
2023-05-31T04:05:36.024Z,17.14
2023-05-31T04:08:03.354Z,17.17
2023-05-31T04:10:33.195Z,17.44
2023-05-31T04:13:03.446Z,17.45
2023-05-31T04:15:32.812Z,17.73
2023-05-31T04:18:04.600Z,18.28
2023-05-31T04:20:32.552Z,18.52
2023-05-31T04:22:59.928Z,18.86
2023-05-31T04:25:27.248Z,18.07
2023-05-31T04:27:55.028Z,18.53
2023-05-31T04:30:22.516Z,18.48
2023-05-31T04:32:50.812Z,18.12
2023-05-31T04:35:18.971Z,18.07
2023-05-31T04:37:48.733Z,18.40
2023-05-31T04:40:18.568Z,19.18
2023-05-31T04:42:45.751Z,20.04
2023-05-31T04:45:25.260Z,20.12
2023-05-31T04:47:56.247Z,20.11
2023-05-31T04:50:23.602Z,20.87
2023-05-31T04:52:50.690Z,21.29
2023-05-31T04:55:18.024Z,21.36
2023-05-31T04:57:45.103Z,21.14
2023-05-31T05:00:15.475Z,21.71
2023-05-31T05:02:59.045Z,21.52
2023-05-31T05:05:29.894Z,21.22
2023-05-31T05:08:00.188Z,21.97
2023-05-31T05:10:27.363Z,22.87
2023-05-31T05:12:55.421Z,23.34
2023-05-31T05:15:22.714Z,22.64
2023-05-31T05:17:50.156Z,22.76
2023-05-31T05:20:18.929Z,22.86
2023-05-31T05:22:54.073Z,23.15
2023-05-31T05:25:31.605Z,24.04
2023-05-31T05:27:58.895Z,23.32
2023-05-31T05:30:25.862Z,23.52
2023-05-31T05:32:52.878Z,23.44
2023-05-31T05:35:21.487Z,23.98
2023-05-31T05:37:48.735Z,23.94
2023-05-31T05:40:17.954Z,23.37
2023-05-31T05:42:45.104Z,24.23
2023-05-31T05:45:12.691Z,23.59
2023-05-31T05:47:42.874Z,24.25
2023-05-31T05:50:11.017Z,25.22
2023-05-31T05:52:40.490Z,24.42
2023-05-31T05:55:09.578Z,24.89
2023-05-31T05:57:37.459Z,24.05
2023-05-31T06:00:22.699Z,24.58
2023-05-31T06:02:55.464Z,25.96
2023-05-31T06:05:22.995Z,25.86
2023-05-31T06:07:52.477Z,25.91
2023-05-31T06:10:19.826Z,26.02
2023-05-31T06:12:47.174Z,26.47
2023-05-31T06:15:17.443Z,22.92
2023-05-31T06:17:45.584Z,21.44
2023-05-31T06:20:13.173Z,22.20
2023-05-31T06:22:40.662Z,20.82
2023-05-31T06:25:09.885Z,20.47
2023-05-31T06:27:36.911Z,22.56
2023-05-31T06:30:04.978Z,23.18
2023-05-31T06:32:37.746Z,22.95
2023-05-31T06:35:08.523Z,22.59
2023-05-31T06:37:35.518Z,23.01
2023-05-31T06:40:07.868Z,24.76
2023-05-31T06:42:37.561Z,24.04
2023-05-31T06:45:25.468Z,21.57
2023-05-31T06:47:53.232Z,22.49
2023-05-31T06:50:23.524Z,23.75
2023-05-31T06:53:10.040Z,23.05
2023-05-31T06:55:42.353Z,23.37
2023-05-31T06:58:16.267Z,22.81
2023-05-31T07:00:43.427Z,21.60
2023-05-31T07:03:10.739Z,21.28
2023-05-31T07:05:38.209Z,21.59
2023-05-31T07:08:59.750Z,20.96
2023-05-31T07:11:40.126Z,22.43
2023-05-31T07:14:09.887Z,21.23
2023-05-31T07:16:37.541Z,21.35
2023-05-31T07:19:05.412Z,21.51
2023-05-31T07:21:32.416Z,21.56
2023-05-31T07:24:04.378Z,22.33
2023-05-31T07:26:31.636Z,22.17
2023-05-31T07:28:58.596Z,21.96
2023-05-31T07:32:42.615Z,21.61
2023-05-31T07:35:11.430Z,21.69
2023-05-31T07:37:39.171Z,21.30
2023-05-31T07:40:09.349Z,22.28
2023-05-31T07:42:36.446Z,22.43
2023-05-31T07:45:05.594Z,22.70
2023-05-31T07:47:33.199Z,23.29
2023-05-31T07:50:00.241Z,22.84
2023-05-31T07:52:29.413Z,21.99
2023-05-31T07:54:56.436Z,21.94
2023-05-31T07:57:23.420Z,22.01
2023-05-31T07:59:51.865Z,21.92
2023-05-31T08:02:20.297Z,21.97
2023-05-31T08:04:47.668Z,21.84
2023-05-31T08:07:14.660Z,22.14
2023-05-31T08:09:43.032Z,22.03
2023-05-31T08:12:10.597Z,22.00
2023-05-31T08:14:37.730Z,22.07
2023-05-31T08:17:33.031Z,22.39
2023-05-31T08:20:04.039Z,21.93
2023-05-31T08:22:32.035Z,21.84
2023-05-31T08:25:02.397Z,22.34
2023-05-31T08:27:30.106Z,22.66
2023-05-31T08:29:56.978Z,21.98
2023-05-31T08:32:34.875Z,22.45
2023-05-31T08:35:14.609Z,22.32
2023-05-31T08:37:41.801Z,22.34
2023-05-31T08:40:11.373Z,22.64
2023-05-31T08:42:48.303Z,22.88
2023-05-31T08:45:18.851Z,22.77
2023-05-31T08:47:59.741Z,22.49
2023-05-31T08:50:29.616Z,22.70
2023-05-31T08:52:57.736Z,22.88
2023-05-31T08:55:28.937Z,22.90
2023-05-31T08:57:58.707Z,22.83
2023-05-31T09:00:26.633Z,23.05
2023-05-31T09:02:59.637Z,22.62
2023-05-31T09:05:28.121Z,22.67
2023-05-31T09:08:01.285Z,23.08
2023-05-31T09:10:30.105Z,22.82
2023-05-31T09:12:58.892Z,22.32
2023-05-31T09:15:26.479Z,23.01
2023-05-31T09:17:56.780Z,22.80
2023-05-31T09:20:32.355Z,22.83
2023-05-31T09:23:03.838Z,22.70
2023-05-31T09:25:44.821Z,23.24
2023-05-31T09:28:15.324Z,23.37
2023-05-31T09:30:44.439Z,22.99
2023-05-31T09:33:14.902Z,22.88
2023-05-31T09:35:57.252Z,23.13
2023-05-31T09:38:38.750Z,23.54
2023-05-31T09:41:42.759Z,23.14
2023-05-31T09:44:20.470Z,23.54
2023-05-31T09:46:56.952Z,23.75
2023-05-31T09:49:45.095Z,23.45
2023-05-31T09:52:14.848Z,23.63
2023-05-31T09:54:42.955Z,23.75
2023-05-31T10:00:14.896Z,23.53
2023-05-31T10:02:43.972Z,23.48
2023-05-31T10:05:15.232Z,23.64
2023-05-31T10:07:54.338Z,23.54
2023-05-31T10:10:26.055Z,23.24
2023-05-31T10:13:30.687Z,23.78
2023-05-31T10:16:07.133Z,23.43
2023-05-31T10:18:44.958Z,23.94
2023-05-31T10:21:26.039Z,23.53
2023-05-31T10:24:07.748Z,23.24
2023-05-31T10:26:52.902Z,23.47
2023-05-31T10:29:29.549Z,23.46
2023-05-31T10:32:07.828Z,23.49
2023-05-31T10:34:38.691Z,23.76
2023-05-31T10:37:11.883Z,24.41
2023-05-31T10:39:54.173Z,23.73
2023-05-31T10:42:28.684Z,24.08
2023-05-31T10:45:05.900Z,23.53
2023-05-31T10:47:38.911Z,23.90
2023-05-31T10:50:08.889Z,24.68
2023-05-31T10:52:35.851Z,24.27
2023-05-31T10:55:20.973Z,23.97
2023-05-31T10:57:54.569Z,23.93
2023-05-31T11:00:24.586Z,24.44
2023-05-31T11:02:53.539Z,23.65
2023-05-31T11:05:22.389Z,23.77
2023-05-31T11:07:50.940Z,24.46
2023-05-31T11:10:28.898Z,25.14
2023-05-31T11:13:04.705Z,25.33
2023-05-31T11:15:44.834Z,25.67
2023-05-31T11:18:23.615Z,24.99
2023-05-31T11:20:50.761Z,24.30
2023-05-31T11:23:26.779Z,24.54
2023-05-31T11:26:16.128Z,25.26
2023-05-31T11:29:00.257Z,25.31
2023-05-31T11:32:00.871Z,24.34
2023-05-31T11:34:34.937Z,24.14
2023-05-31T11:37:05.054Z,25.42
2023-05-31T11:39:33.151Z,25.55
2023-05-31T11:42:00.394Z,25.02
2023-05-31T11:44:39.965Z,24.26
2023-05-31T11:47:12.497Z,25.30
2023-05-31T11:49:39.695Z,26.28
2023-05-31T11:52:07.282Z,25.21
2023-05-31T11:54:34.991Z,25.26
2023-05-31T11:57:05.025Z,25.38
2023-05-31T11:59:33.066Z,24.92
2023-05-31T12:02:04.540Z,24.87
2023-05-31T12:04:37.219Z,24.74
2023-05-31T12:07:06.187Z,25.13
2023-05-31T12:09:34.695Z,25.43
2023-05-31T12:12:03.122Z,25.74
2023-05-31T12:14:30.305Z,26.06
2023-05-31T12:16:57.313Z,26.89
2023-05-31T12:19:25.110Z,24.75
2023-05-31T12:21:53.540Z,24.69
2023-05-31T12:24:21.604Z,24.83
2023-05-31T12:26:48.939Z,25.04
2023-05-31T12:29:16.914Z,25.18
2023-05-31T12:31:46.215Z,24.77
2023-05-31T12:34:14.716Z,24.43
2023-05-31T12:36:44.136Z,25.12
2023-05-31T12:39:14.455Z,24.39
2023-05-31T12:41:43.306Z,24.44
2023-05-31T12:44:10.391Z,24.81
2023-05-31T12:46:42.714Z,24.63
2023-05-31T12:49:22.592Z,24.58
2023-05-31T12:51:49.940Z,24.69
2023-05-31T12:54:20.188Z,24.80
2023-05-31T12:56:48.904Z,24.56
2023-05-31T12:59:16.910Z,24.63
2023-05-31T13:01:44.321Z,24.67
2023-05-31T13:04:14.266Z,24.97
2023-05-31T13:06:42.187Z,25.04
2023-05-31T13:09:09.843Z,25.32
2023-05-31T13:11:40.273Z,25.33
2023-05-31T13:14:10.221Z,25.28
2023-05-31T13:16:40.737Z,24.62
2023-05-31T13:19:09.250Z,24.69
2023-05-31T13:21:37.098Z,24.52
2023-05-31T13:24:06.802Z,24.49
2023-05-31T13:26:36.353Z,24.70
2023-05-31T13:29:05.570Z,24.62
2023-05-31T13:31:33.150Z,24.73
2023-05-31T13:34:02.116Z,24.70
2023-05-31T13:36:36.039Z,25.02
2023-05-31T13:39:14.196Z,25.10
2023-05-31T13:41:43.554Z,25.21
2023-05-31T13:44:12.052Z,25.13
2023-05-31T13:46:39.346Z,25.16
2023-05-31T13:49:11.338Z,25.09
2023-05-31T13:51:38.651Z,25.30
2023-05-31T13:54:06.036Z,25.42
2023-05-31T13:56:32.990Z,25.21
2023-05-31T13:59:00.893Z,25.36
2023-05-31T14:01:30.162Z,25.17
2023-05-31T14:03:58.940Z,25.19
2023-05-31T14:06:26.352Z,25.17
2023-05-31T14:08:55.025Z,25.41
2023-05-31T14:11:22.195Z,25.43
2023-05-31T14:13:50.212Z,25.30
2023-05-31T14:16:18.386Z,25.34
2023-05-31T14:18:47.261Z,25.33
2023-05-31T14:21:15.218Z,25.47
2023-05-31T14:23:42.317Z,25.39
2023-05-31T14:26:09.406Z,25.11
2023-05-31T14:28:37.327Z,25.39
2023-05-31T14:31:04.394Z,25.14
2023-05-31T14:33:31.392Z,25.30
2023-05-31T14:36:01.507Z,25.40
2023-05-31T14:38:34.893Z,25.22
2023-05-31T14:41:03.623Z,25.13
2023-05-31T14:43:31.673Z,25.31
2023-05-31T14:45:58.936Z,25.31
2023-05-31T14:48:25.954Z,25.44
2023-05-31T14:50:53.441Z,25.56
2023-05-31T14:53:24.290Z,25.41
2023-05-31T14:55:52.631Z,25.62
2023-05-31T14:58:21.274Z,25.63
2023-05-31T15:00:53.822Z,25.49
2023-05-31T15:03:20.844Z,25.45
2023-05-31T15:05:47.850Z,25.61
2023-05-31T15:08:14.928Z,25.53
2023-05-31T15:10:44.366Z,25.45
2023-05-31T15:13:11.628Z,25.30
2023-05-31T15:15:38.655Z,25.17
2023-05-31T15:18:06.369Z,25.37
2023-05-31T15:20:33.839Z,25.63
2023-05-31T15:23:00.849Z,25.66
2023-05-31T15:25:27.660Z,25.43
2023-05-31T15:27:56.186Z,25.47
2023-05-31T15:30:23.401Z,25.69
2023-05-31T15:32:52.320Z,25.63
2023-05-31T15:35:19.381Z,25.61
2023-05-31T15:37:48.044Z,25.67
2023-05-31T15:40:15.293Z,25.58
2023-05-31T15:42:42.152Z,25.55
2023-05-31T15:45:11.329Z,25.58
2023-05-31T15:47:39.172Z,25.60
2023-05-31T15:50:08.353Z,25.54
2023-05-31T15:52:35.584Z,25.57
2023-05-31T15:55:02.882Z,25.49
2023-05-31T15:57:29.955Z,25.57
2023-05-31T15:59:57.238Z,25.33
2023-05-31T16:02:25.961Z,25.53
2023-05-31T16:04:53.107Z,25.60
2023-05-31T16:07:20.181Z,25.61
2023-05-31T16:09:47.143Z,25.47
2023-05-31T16:12:14.596Z,25.47
2023-05-31T16:14:41.515Z,25.47
2023-05-31T16:17:08.652Z,25.50
2023-05-31T16:19:36.940Z,25.55
2023-05-31T16:22:04.539Z,25.50
2023-05-31T16:24:31.594Z,25.51
2023-05-31T16:26:58.461Z,25.44
2023-05-31T16:29:25.450Z,25.44
2023-05-31T16:31:54.930Z,25.38
2023-05-31T16:34:24.230Z,25.52
2023-05-31T16:36:55.700Z,25.41
2023-05-31T16:39:28.631Z,25.46
2023-05-31T16:41:55.652Z,25.41
2023-05-31T16:44:22.606Z,25.43
2023-05-31T16:46:49.666Z,25.40
2023-05-31T16:49:17.052Z,25.25
2023-05-31T16:51:43.973Z,25.24
2023-05-31T16:54:12.222Z,25.30
2023-05-31T16:56:39.064Z,25.35
2023-05-31T16:59:05.931Z,25.43
2023-05-31T17:01:32.998Z,25.33
2023-05-31T17:04:00.095Z,25.36
2023-05-31T17:06:27.119Z,25.26
2023-05-31T17:08:54.330Z,25.24
2023-05-31T17:11:22.732Z,25.35
2023-05-31T17:13:50.265Z,25.32
2023-05-31T17:16:18.495Z,25.22
2023-05-31T17:18:45.852Z,25.28
2023-05-31T17:21:13.281Z,25.30
2023-05-31T17:23:40.249Z,25.24
2023-05-31T17:26:07.485Z,25.27
2023-05-31T17:28:35.748Z,25.15
2023-05-31T17:31:02.731Z,25.20
2023-05-31T17:33:29.663Z,25.21
2023-05-31T17:35:56.556Z,25.29
2023-05-31T17:38:23.478Z,25.28
2023-05-31T17:40:50.636Z,25.16
2023-05-31T17:43:18.342Z,25.18
2023-05-31T17:45:47.419Z,25.09
2023-05-31T17:48:14.632Z,25.08
2023-05-31T17:50:42.119Z,25.17
2023-05-31T17:53:09.167Z,25.04
2023-05-31T17:55:36.048Z,25.08
2023-05-31T17:58:03.010Z,25.08
2023-05-31T18:00:30.089Z,25.01
2023-05-31T18:02:58.585Z,24.94
2023-05-31T18:05:25.528Z,24.94
2023-05-31T18:07:52.573Z,24.89
2023-05-31T18:10:19.561Z,24.88
2023-05-31T18:12:47.380Z,24.80
2023-05-31T18:15:15.321Z,24.78
2023-05-31T18:17:42.344Z,24.70
2023-05-31T18:20:11.740Z,24.71
2023-05-31T18:22:38.751Z,24.65
2023-05-31T18:25:06.881Z,24.60
2023-05-31T18:27:33.735Z,24.55
2023-05-31T18:30:00.792Z,24.55
2023-05-31T18:32:28.112Z,24.50
2023-05-31T18:34:55.210Z,24.42
2023-05-31T18:37:23.947Z,24.41
2023-05-31T18:39:50.857Z,24.38
2023-05-31T18:42:18.108Z,24.35
2023-05-31T18:44:45.041Z,24.35
2023-05-31T18:47:12.235Z,24.15
2023-05-31T18:49:39.366Z,24.10
2023-05-31T18:52:06.558Z,24.01
2023-05-31T18:54:34.841Z,23.91
2023-05-31T18:57:01.781Z,23.88
2023-05-31T18:59:35.116Z,23.79
2023-05-31T19:02:03.779Z,23.75
2023-05-31T19:04:30.689Z,23.70
2023-05-31T19:06:58.996Z,23.63
2023-05-31T19:09:25.890Z,23.57
2023-05-31T19:11:54.756Z,23.51
2023-05-31T19:14:21.672Z,23.42
2023-05-31T19:16:50.411Z,23.40
2023-05-31T19:19:17.391Z,23.30
2023-05-31T19:21:44.655Z,23.30
2023-05-31T19:24:11.680Z,23.20
2023-05-31T19:26:38.734Z,23.23
2023-05-31T19:29:07.449Z,23.21
2023-05-31T19:31:34.570Z,23.14
2023-05-31T19:34:01.565Z,23.08
2023-05-31T19:36:28.738Z,22.95
2023-05-31T19:38:58.016Z,22.86
2023-05-31T19:41:28.068Z,22.85
2023-05-31T19:43:54.926Z,22.82
2023-05-31T19:46:24.305Z,22.75
2023-05-31T19:48:51.263Z,22.70
2023-05-31T19:51:18.561Z,22.60
2023-05-31T19:53:45.524Z,22.53
2023-05-31T19:56:12.467Z,22.40
2023-05-31T19:58:40.707Z,22.31
2023-05-31T20:01:07.813Z,22.21
2023-05-31T20:03:36.357Z,22.11
2023-05-31T20:06:03.951Z,22.00
2023-05-31T20:08:31.108Z,21.89
2023-05-31T20:10:57.947Z,21.81
2023-05-31T20:13:24.833Z,21.79
2023-05-31T20:15:51.706Z,21.72
2023-05-31T20:18:18.605Z,21.66
2023-05-31T20:20:46.929Z,21.62
2023-05-31T20:23:13.788Z,21.58
2023-05-31T20:25:41.490Z,21.54
2023-05-31T20:28:08.569Z,21.44
2023-05-31T20:30:37.715Z,21.38
2023-05-31T20:33:04.890Z,21.32
2023-05-31T20:35:31.846Z,21.27
2023-05-31T20:38:00.020Z,21.19
2023-05-31T20:40:27.574Z,21.13
2023-05-31T20:42:54.658Z,21.03
2023-05-31T20:45:21.869Z,20.90
2023-05-31T20:47:49.395Z,20.83
2023-05-31T20:50:16.454Z,20.61
2023-05-31T20:52:43.388Z,20.39
2023-05-31T20:55:12.402Z,20.29
2023-05-31T20:57:40.533Z,20.10
2023-05-31T21:00:09.632Z,19.86
2023-05-31T21:02:36.718Z,19.57
2023-05-31T21:05:04.169Z,19.27
2023-05-31T21:07:31.044Z,19.09
2023-05-31T21:09:58.317Z,19.08
2023-05-31T21:12:26.651Z,19.11
2023-05-31T21:14:53.581Z,18.99
2023-05-31T21:17:20.773Z,18.89
2023-05-31T21:19:47.688Z,18.80
2023-05-31T21:22:14.606Z,18.78
2023-05-31T21:24:41.416Z,18.75
2023-05-31T21:27:08.408Z,18.62
2023-05-31T21:29:36.630Z,18.45
2023-05-31T21:32:03.992Z,18.45
2023-05-31T21:34:31.030Z,18.45
2023-05-31T21:36:58.206Z,18.28
2023-05-31T21:39:25.707Z,18.14
2023-05-31T21:41:52.804Z,17.99
2023-05-31T21:44:20.408Z,17.91
2023-05-31T21:46:48.747Z,17.79
2023-05-31T21:49:15.705Z,17.72
2023-05-31T21:51:42.692Z,17.69
2023-05-31T21:54:09.704Z,17.77
2023-05-31T21:56:36.692Z,17.85
2023-05-31T21:59:03.566Z,17.90
2023-05-31T22:01:30.503Z,17.92
2023-05-31T22:03:58.855Z,17.87
2023-05-31T22:06:26.215Z,17.86
2023-05-31T22:08:53.107Z,17.86
2023-05-31T22:11:20.998Z,17.81
2023-05-31T22:13:48.514Z,17.83
2023-05-31T22:16:15.420Z,17.88
2023-05-31T22:18:42.278Z,17.96
2023-05-31T22:21:10.599Z,17.88
2023-05-31T22:23:37.451Z,17.59
2023-05-31T22:26:04.411Z,17.48
2023-05-31T22:28:31.977Z,17.40
2023-05-31T22:30:59.062Z,17.24
2023-05-31T22:33:26.361Z,17.13
2023-05-31T22:35:53.339Z,17.01
2023-05-31T22:38:21.560Z,16.90
2023-05-31T22:40:48.435Z,16.95
2023-05-31T22:43:15.625Z,16.97
2023-05-31T22:45:42.471Z,16.92
2023-05-31T22:48:09.582Z,16.96
2023-05-31T22:50:36.678Z,17.09
2023-05-31T22:53:03.730Z,17.15
2023-05-31T22:55:31.973Z,17.20
2023-05-31T22:57:58.862Z,17.24
2023-05-31T23:00:26.033Z,17.18
2023-05-31T23:02:52.956Z,16.76
2023-05-31T23:05:19.931Z,16.61
2023-05-31T23:07:46.856Z,16.43
2023-05-31T23:10:14.528Z,16.36
2023-05-31T23:12:43.725Z,16.42
2023-05-31T23:15:12.136Z,16.16
2023-05-31T23:17:42.465Z,16.26
2023-05-31T23:20:14.203Z,16.41
2023-05-31T23:22:43.715Z,16.44
2023-05-31T23:25:12.801Z,16.45
2023-05-31T23:27:42.703Z,16.53
2023-05-31T23:30:13.357Z,16.57
2023-05-31T23:32:41.049Z,16.65
2023-05-31T23:35:09.272Z,16.65
2023-05-31T23:37:36.225Z,16.59
2023-05-31T23:40:03.980Z,16.52
2023-05-31T23:42:30.860Z,16.32
2023-05-31T23:44:59.106Z,16.13
2023-05-31T23:47:26.378Z,16.13
2023-05-31T23:49:54.476Z,16.10
2023-05-31T23:52:23.006Z,15.76
2023-05-31T23:54:50.597Z,15.52
2023-05-31T23:57:17.452Z,15.39
2023-05-31T23:59:44.310Z,15.40
